sensor_id;sensor_type;location;lat;lon;timestamp;pressure;altitude;pressure_sealevel;temperature;humidity
12471;BME280;36499;46.484;13.832;2023-03-01T00:01:12;93718.09;;;2.29;66.40
12471;BME280;36499;46.484;13.832;2023-03-01T00:03:39;93719.72;;;2.30;67.19
12471;BME280;36499;46.484;13.832;2023-03-01T00:06:07;93720.59;;;2.21;66.90
12471;BME280;36499;46.484;13.832;2023-03-01T00:08:35;93716.00;;;2.24;67.25
12471;BME280;36499;46.484;13.832;2023-03-01T00:11:07;93714.06;;;2.26;67.47
12471;BME280;36499;46.484;13.832;2023-03-01T00:13:35;93714.06;;;2.26;66.88
12471;BME280;36499;46.484;13.832;2023-03-01T00:16:04;93721.34;;;2.13;66.87
12471;BME280;36499;46.484;13.832;2023-03-01T00:18:32;93712.53;;;2.16;67.24
12471;BME280;36499;46.484;13.832;2023-03-01T00:20:59;93714.22;;;2.07;65.97
12471;BME280;36499;46.484;13.832;2023-03-01T00:23:27;93709.88;;;2.08;66.89
12471;BME280;36499;46.484;13.832;2023-03-01T00:25:54;93709.44;;;1.94;67.54
12471;BME280;36499;46.484;13.832;2023-03-01T00:28:23;93702.19;;;1.90;66.77
12471;BME280;36499;46.484;13.832;2023-03-01T00:30:50;93701.91;;;1.83;67.01
12471;BME280;36499;46.484;13.832;2023-03-01T00:33:17;93704.47;;;1.66;67.15
12471;BME280;36499;46.484;13.832;2023-03-01T00:35:44;93706.97;;;1.75;67.15
12471;BME280;36499;46.484;13.832;2023-03-01T00:38:11;93707.31;;;1.90;66.74
12471;BME280;36499;46.484;13.832;2023-03-01T00:40:39;93707.13;;;1.74;66.87
12471;BME280;36499;46.484;13.832;2023-03-01T00:43:06;93705.13;;;1.68;67.50
12471;BME280;36499;46.484;13.832;2023-03-01T00:45:34;93701.06;;;1.75;67.29
12471;BME280;36499;46.484;13.832;2023-03-01T00:48:01;93696.34;;;1.88;67.03
12471;BME280;36499;46.484;13.832;2023-03-01T00:50:28;93692.91;;;1.97;66.49
12471;BME280;36499;46.484;13.832;2023-03-01T00:52:56;93694.09;;;1.85;66.83
12471;BME280;36499;46.484;13.832;2023-03-01T00:55:23;93688.34;;;1.91;66.35
12471;BME280;36499;46.484;13.832;2023-03-01T00:57:51;93689.31;;;2.08;66.17
12471;BME280;36499;46.484;13.832;2023-03-01T01:00:19;93682.41;;;1.90;66.85
12471;BME280;36499;46.484;13.832;2023-03-01T01:02:48;93680.41;;;2.02;65.93
12471;BME280;36499;46.484;13.832;2023-03-01T01:05:15;93678.09;;;2.09;66.78
12471;BME280;36499;46.484;13.832;2023-03-01T01:07:47;93671.75;;;2.03;66.20
12471;BME280;36499;46.484;13.832;2023-03-01T01:10:14;93673.81;;;2.17;66.11
12471;BME280;36499;46.484;13.832;2023-03-01T01:12:43;93669.72;;;2.24;66.36
12471;BME280;36499;46.484;13.832;2023-03-01T01:15:11;93674.78;;;2.16;66.05
12471;BME280;36499;46.484;13.832;2023-03-01T01:17:40;93660.91;;;2.09;66.79
12471;BME280;36499;46.484;13.832;2023-03-01T01:20:10;93668.38;;;1.85;66.95
12471;BME280;36499;46.484;13.832;2023-03-01T01:22:37;93667.94;;;1.89;66.60
12471;BME280;36499;46.484;13.832;2023-03-01T01:25:05;93665.38;;;2.07;66.69
12471;BME280;36499;46.484;13.832;2023-03-01T01:27:32;93664.94;;;2.12;65.97
12471;BME280;36499;46.484;13.832;2023-03-01T01:29:59;93660.94;;;2.17;66.42
12471;BME280;36499;46.484;13.832;2023-03-01T01:32:26;93662.06;;;2.15;66.69
12471;BME280;36499;46.484;13.832;2023-03-01T01:34:53;93657.06;;;2.13;66.25
12471;BME280;36499;46.484;13.832;2023-03-01T01:37:22;93653.97;;;1.92;66.75
12471;BME280;36499;46.484;13.832;2023-03-01T01:39:57;93646.13;;;1.93;66.31
12471;BME280;36499;46.484;13.832;2023-03-01T01:42:25;93640.34;;;2.09;66.25
12471;BME280;36499;46.484;13.832;2023-03-01T01:45:27;93640.69;;;1.97;66.73
12471;BME280;36499;46.484;13.832;2023-03-01T01:47:58;93643.50;;;1.85;67.58
12471;BME280;36499;46.484;13.832;2023-03-01T01:50:26;93639.38;;;1.92;67.27
12471;BME280;36499;46.484;13.832;2023-03-01T01:53:09;93643.50;;;1.85;67.27
12471;BME280;36499;46.484;13.832;2023-03-01T01:55:45;93643.56;;;1.93;67.05
12471;BME280;36499;46.484;13.832;2023-03-01T01:58:18;93636.59;;;1.86;67.71
12471;BME280;36499;46.484;13.832;2023-03-01T02:00:47;93638.50;;;2.02;66.90
12471;BME280;36499;46.484;13.832;2023-03-01T02:03:18;93637.59;;;2.11;67.40
12471;BME280;36499;46.484;13.832;2023-03-01T02:05:53;93636.19;;;1.99;66.83
12471;BME280;36499;46.484;13.832;2023-03-01T02:08:29;93631.06;;;1.99;67.09
12471;BME280;36499;46.484;13.832;2023-03-01T02:10:59;93623.13;;;1.92;67.16
12471;BME280;36499;46.484;13.832;2023-03-01T02:13:30;93619.47;;;1.77;67.83
12471;BME280;36499;46.484;13.832;2023-03-01T02:15:59;93608.00;;;1.89;67.57
12471;BME280;36499;46.484;13.832;2023-03-01T02:18:26;93615.56;;;1.90;67.77
12471;BME280;36499;46.484;13.832;2023-03-01T02:21:10;93610.38;;;1.82;67.94
12471;BME280;36499;46.484;13.832;2023-03-01T02:23:40;93616.75;;;1.78;67.92
12471;BME280;36499;46.484;13.832;2023-03-01T02:26:19;93610.06;;;1.68;68.50
12471;BME280;36499;46.484;13.832;2023-03-01T02:28:50;93604.88;;;1.60;68.30
12471;BME280;36499;46.484;13.832;2023-03-01T02:31:20;93606.25;;;1.54;69.37
12471;BME280;36499;46.484;13.832;2023-03-01T02:34:07;93595.31;;;1.52;69.16
12471;BME280;36499;46.484;13.832;2023-03-01T02:36:39;93597.66;;;1.63;68.59
12471;BME280;36499;46.484;13.832;2023-03-01T02:39:12;93591.47;;;1.56;68.87
12471;BME280;36499;46.484;13.832;2023-03-01T02:41:48;93595.59;;;1.49;69.61
12471;BME280;36499;46.484;13.832;2023-03-01T02:44:19;93594.94;;;1.65;69.09
12471;BME280;36499;46.484;13.832;2023-03-01T02:46:49;93596.72;;;1.82;68.82
12471;BME280;36499;46.484;13.832;2023-03-01T02:49:24;93595.59;;;1.84;68.65
12471;BME280;36499;46.484;13.832;2023-03-01T02:52:21;93591.84;;;1.61;69.02
12471;BME280;36499;46.484;13.832;2023-03-01T02:54:57;93587.88;;;1.49;69.69
12471;BME280;36499;46.484;13.832;2023-03-01T02:57:28;93588.47;;;1.61;69.56
12471;BME280;36499;46.484;13.832;2023-03-01T03:00:02;93585.16;;;1.33;69.79
12471;BME280;36499;46.484;13.832;2023-03-01T03:02:33;93584.75;;;1.55;69.63
12471;BME280;36499;46.484;13.832;2023-03-01T03:05:07;93577.59;;;1.49;69.70
12471;BME280;36499;46.484;13.832;2023-03-01T03:07:38;93582.09;;;1.47;70.31
12471;BME280;36499;46.484;13.832;2023-03-01T03:10:09;93585.69;;;1.54;69.19
12471;BME280;36499;46.484;13.832;2023-03-01T03:12:38;93582.75;;;1.67;68.94
12471;BME280;36499;46.484;13.832;2023-03-01T03:15:10;93586.44;;;1.82;68.36
12471;BME280;36499;46.484;13.832;2023-03-01T03:17:39;93585.44;;;1.83;68.58
12471;BME280;36499;46.484;13.832;2023-03-01T03:20:13;93581.19;;;1.91;68.22
12471;BME280;36499;46.484;13.832;2023-03-01T03:22:45;93580.69;;;1.88;68.89
12471;BME280;36499;46.484;13.832;2023-03-01T03:25:13;93582.69;;;1.94;68.73
12471;BME280;36499;46.484;13.832;2023-03-01T03:27:42;93579.88;;;1.87;68.77
12471;BME280;36499;46.484;13.832;2023-03-01T03:30:15;93574.72;;;1.87;68.45
12471;BME280;36499;46.484;13.832;2023-03-01T03:32:44;93577.13;;;1.63;69.38
12471;BME280;36499;46.484;13.832;2023-03-01T03:35:19;93582.09;;;1.65;69.72
12471;BME280;36499;46.484;13.832;2023-03-01T03:37:46;93562.72;;;1.70;69.93
12471;BME280;36499;46.484;13.832;2023-03-01T03:40:31;93568.53;;;1.55;69.52
12471;BME280;36499;46.484;13.832;2023-03-01T03:42:59;93561.75;;;1.71;69.25
12471;BME280;36499;46.484;13.832;2023-03-01T03:45:27;93558.66;;;1.68;68.97
12471;BME280;36499;46.484;13.832;2023-03-01T03:47:54;93564.03;;;1.74;68.93
12471;BME280;36499;46.484;13.832;2023-03-01T03:50:21;93562.28;;;1.57;69.50
12471;BME280;36499;46.484;13.832;2023-03-01T03:52:48;93559.47;;;1.68;69.58
12471;BME280;36499;46.484;13.832;2023-03-01T03:55:15;93559.78;;;1.65;70.00
12471;BME280;36499;46.484;13.832;2023-03-01T03:57:47;93561.41;;;1.66;69.94
12471;BME280;36499;46.484;13.832;2023-03-01T04:00:19;93555.81;;;1.53;70.43
12471;BME280;36499;46.484;13.832;2023-03-01T04:02:48;93555.69;;;1.37;70.86
12471;BME280;36499;46.484;13.832;2023-03-01T04:05:18;93557.69;;;1.16;71.54
12471;BME280;36499;46.484;13.832;2023-03-01T04:07:45;93547.66;;;1.22;71.42
12471;BME280;36499;46.484;13.832;2023-03-01T04:10:16;93558.09;;;1.38;71.54
12471;BME280;36499;46.484;13.832;2023-03-01T04:12:44;93552.56;;;1.33;71.68
12471;BME280;36499;46.484;13.832;2023-03-01T04:15:12;93551.19;;;1.57;70.49
12471;BME280;36499;46.484;13.832;2023-03-01T04:17:45;93541.81;;;1.48;71.01
12471;BME280;36499;46.484;13.832;2023-03-01T04:20:16;93550.38;;;1.56;70.77
12471;BME280;36499;46.484;13.832;2023-03-01T04:22:51;93549.44;;;1.57;70.92
12471;BME280;36499;46.484;13.832;2023-03-01T04:25:19;93543.03;;;1.61;70.63
12471;BME280;36499;46.484;13.832;2023-03-01T04:27:46;93556.59;;;1.71;70.64
12471;BME280;36499;46.484;13.832;2023-03-01T04:30:14;93550.31;;;1.66;70.45
12471;BME280;36499;46.484;13.832;2023-03-01T04:32:42;93551.13;;;1.66;70.72
12471;BME280;36499;46.484;13.832;2023-03-01T04:35:09;93548.91;;;1.54;70.90
12471;BME280;36499;46.484;13.832;2023-03-01T04:37:37;93546.56;;;1.60;70.39
12471;BME280;36499;46.484;13.832;2023-03-01T04:40:06;93554.72;;;1.56;71.25
12471;BME280;36499;46.484;13.832;2023-03-01T04:42:39;93547.75;;;1.66;70.59
12471;BME280;36499;46.484;13.832;2023-03-01T04:45:07;93547.31;;;1.70;70.90
12471;BME280;36499;46.484;13.832;2023-03-01T04:47:40;93541.13;;;1.28;71.57
12471;BME280;36499;46.484;13.832;2023-03-01T04:50:10;93544.88;;;1.51;71.00
12471;BME280;36499;46.484;13.832;2023-03-01T04:52:39;93542.84;;;1.55;71.18
12471;BME280;36499;46.484;13.832;2023-03-01T04:55:08;93550.91;;;1.42;71.05
12471;BME280;36499;46.484;13.832;2023-03-01T04:57:36;93548.53;;;1.49;71.08
12471;BME280;36499;46.484;13.832;2023-03-01T05:00:04;93543.94;;;1.52;71.59
12471;BME280;36499;46.484;13.832;2023-03-01T05:02:50;93542.91;;;1.63;70.66
12471;BME280;36499;46.484;13.832;2023-03-01T05:05:21;93554.22;;;1.52;71.70
12471;BME280;36499;46.484;13.832;2023-03-01T05:07:57;93554.63;;;1.65;70.61
12471;BME280;36499;46.484;13.832;2023-03-01T05:10:26;93544.28;;;1.57;70.87
12471;BME280;36499;46.484;13.832;2023-03-01T05:12:54;93549.22;;;1.33;72.22
12471;BME280;36499;46.484;13.832;2023-03-01T05:15:23;93557.94;;;1.58;71.59
12471;BME280;36499;46.484;13.832;2023-03-01T05:17:51;93545.19;;;1.48;71.74
12471;BME280;36499;46.484;13.832;2023-03-01T05:20:18;93549.00;;;1.62;70.95
12471;BME280;36499;46.484;13.832;2023-03-01T05:22:48;93548.84;;;1.63;70.73
12471;BME280;36499;46.484;13.832;2023-03-01T05:25:17;93545.38;;;1.72;70.72
12471;BME280;36499;46.484;13.832;2023-03-01T05:27:44;93543.75;;;1.71;70.83
12471;BME280;36499;46.484;13.832;2023-03-01T05:30:13;93541.59;;;1.59;71.09
12471;BME280;36499;46.484;13.832;2023-03-01T05:32:42;93542.59;;;1.66;71.11
12471;BME280;36499;46.484;13.832;2023-03-01T05:35:11;93551.56;;;1.62;71.70
12471;BME280;36499;46.484;13.832;2023-03-01T05:37:41;93551.47;;;1.71;71.36
12471;BME280;36499;46.484;13.832;2023-03-01T05:40:11;93544.88;;;1.51;72.17
12471;BME280;36499;46.484;13.832;2023-03-01T05:42:43;93554.34;;;1.33;72.67
12471;BME280;36499;46.484;13.832;2023-03-01T05:45:12;93548.47;;;1.23;73.38
12471;BME280;36499;46.484;13.832;2023-03-01T05:47:39;93550.47;;;1.47;72.71
12471;BME280;36499;46.484;13.832;2023-03-01T05:50:14;93547.16;;;1.54;72.87
12471;BME280;36499;46.484;13.832;2023-03-01T05:52:46;93545.22;;;1.56;72.44
12471;BME280;36499;46.484;13.832;2023-03-01T05:55:17;93536.16;;;1.44;72.90
12471;BME280;36499;46.484;13.832;2023-03-01T05:57:46;93549.94;;;1.43;72.82
12471;BME280;36499;46.484;13.832;2023-03-01T06:00:17;93542.59;;;1.30;73.61
12471;BME280;36499;46.484;13.832;2023-03-01T06:02:45;93550.91;;;1.42;73.61
12471;BME280;36499;46.484;13.832;2023-03-01T06:05:13;93548.75;;;1.37;74.44
12471;BME280;36499;46.484;13.832;2023-03-01T06:07:41;93559.78;;;1.48;74.25
12471;BME280;36499;46.484;13.832;2023-03-01T06:10:11;93563.00;;;1.32;74.40
12471;BME280;36499;46.484;13.832;2023-03-01T06:12:40;93569.25;;;1.47;73.58
12471;BME280;36499;46.484;13.832;2023-03-01T06:15:11;93560.56;;;1.30;74.64
12471;BME280;36499;46.484;13.832;2023-03-01T06:17:41;93562.06;;;1.33;74.15
12471;BME280;36499;46.484;13.832;2023-03-01T06:20:12;93566.97;;;1.44;73.61
12471;BME280;36499;46.484;13.832;2023-03-01T06:22:40;93566.31;;;1.42;74.16
12471;BME280;36499;46.484;13.832;2023-03-01T06:25:09;93562.66;;;1.44;74.54
12471;BME280;36499;46.484;13.832;2023-03-01T06:27:36;93569.47;;;1.54;74.31
12471;BME280;36499;46.484;13.832;2023-03-01T06:30:04;93573.13;;;1.69;74.01
12471;BME280;36499;46.484;13.832;2023-03-01T06:32:34;93572.03;;;1.71;73.53
12471;BME280;36499;46.484;13.832;2023-03-01T06:35:01;93568.59;;;1.63;74.18
12471;BME280;36499;46.484;13.832;2023-03-01T06:37:28;93583.84;;;1.64;73.77
12471;BME280;36499;46.484;13.832;2023-03-01T06:39:55;93581.56;;;1.61;73.76
12471;BME280;36499;46.484;13.832;2023-03-01T06:42:22;93579.59;;;1.55;73.89
12471;BME280;36499;46.484;13.832;2023-03-01T06:44:49;93576.38;;;1.53;74.61
12471;BME280;36499;46.484;13.832;2023-03-01T06:47:16;93581.00;;;1.67;73.85
12471;BME280;36499;46.484;13.832;2023-03-01T06:49:44;93578.44;;;1.67;74.52
12471;BME280;36499;46.484;13.832;2023-03-01T06:52:11;93579.09;;;1.69;73.82
12471;BME280;36499;46.484;13.832;2023-03-01T06:54:38;93583.63;;;1.75;73.88
12471;BME280;36499;46.484;13.832;2023-03-01T06:57:05;93578.47;;;1.75;74.10
12471;BME280;36499;46.484;13.832;2023-03-01T06:59:32;93579.72;;;1.71;74.37
12471;BME280;36499;46.484;13.832;2023-03-01T07:02:00;93587.88;;;1.84;73.78
12471;BME280;36499;46.484;13.832;2023-03-01T07:04:27;93575.75;;;1.94;73.40
12471;BME280;36499;46.484;13.832;2023-03-01T07:06:57;93586.84;;;1.95;73.44
12471;BME280;36499;46.484;13.832;2023-03-01T07:09:25;93580.63;;;1.98;73.24
12471;BME280;36499;46.484;13.832;2023-03-01T07:11:52;93577.56;;;2.02;72.91
12471;BME280;36499;46.484;13.832;2023-03-01T07:14:19;93588.22;;;2.07;73.50
12471;BME280;36499;46.484;13.832;2023-03-01T07:16:46;93583.72;;;2.27;72.95
12471;BME280;36499;46.484;13.832;2023-03-01T07:19:13;93588.91;;;2.35;72.51
12471;BME280;36499;46.484;13.832;2023-03-01T07:21:41;93583.97;;;2.41;71.63
12471;BME280;36499;46.484;13.832;2023-03-01T07:24:10;93586.66;;;2.32;72.30
12471;BME280;36499;46.484;13.832;2023-03-01T07:26:37;93586.44;;;2.25;71.94
12471;BME280;36499;46.484;13.832;2023-03-01T07:29:07;93585.47;;;2.26;72.21
12471;BME280;36499;46.484;13.832;2023-03-01T07:31:34;93582.72;;;2.20;71.43
12471;BME280;36499;46.484;13.832;2023-03-01T07:34:02;93584.84;;;2.24;71.23
12471;BME280;36499;46.484;13.832;2023-03-01T07:36:29;93578.44;;;2.11;71.59
12471;BME280;36499;46.484;13.832;2023-03-01T07:38:56;93581.16;;;2.27;71.66
12471;BME280;36499;46.484;13.832;2023-03-01T07:41:25;93579.88;;;2.31;71.63
12471;BME280;36499;46.484;13.832;2023-03-01T07:43:52;93578.72;;;2.25;70.67
12471;BME280;36499;46.484;13.832;2023-03-01T07:46:19;93586.13;;;2.28;71.41
12471;BME280;36499;46.484;13.832;2023-03-01T07:48:46;93570.84;;;2.27;71.14
12471;BME280;36499;46.484;13.832;2023-03-01T07:51:14;93579.72;;;2.32;72.22
12471;BME280;36499;46.484;13.832;2023-03-01T07:53:41;93571.22;;;2.32;71.82
12471;BME280;36499;46.484;13.832;2023-03-01T07:56:11;93567.63;;;2.25;71.06
12471;BME280;36499;46.484;13.832;2023-03-01T07:58:42;93579.81;;;2.23;71.74
12471;BME280;36499;46.484;13.832;2023-03-01T08:01:12;93579.81;;;2.23;72.11
12471;BME280;36499;46.484;13.832;2023-03-01T08:03:39;93575.19;;;2.26;71.74
12471;BME280;36499;46.484;13.832;2023-03-01T08:06:09;93572.34;;;1.86;72.83
12471;BME280;36499;46.484;13.832;2023-03-01T08:08:37;93569.53;;;1.97;72.38
12471;BME280;36499;46.484;13.832;2023-03-01T08:11:07;93572.00;;;2.07;72.09
12471;BME280;36499;46.484;13.832;2023-03-01T08:13:34;93576.09;;;2.17;72.15
12471;BME280;36499;46.484;13.832;2023-03-01T08:16:05;93577.19;;;2.15;71.36
12471;BME280;36499;46.484;13.832;2023-03-01T08:18:33;93572.38;;;2.12;71.25
12471;BME280;36499;46.484;13.832;2023-03-01T08:21:04;93583.97;;;2.16;71.50
12471;BME280;36499;46.484;13.832;2023-03-01T08:23:31;93584.53;;;2.10;71.34
12471;BME280;36499;46.484;13.832;2023-03-01T08:26:12;93579.13;;;2.38;70.76
12471;BME280;36499;46.484;13.832;2023-03-01T08:28:41;93571.06;;;2.33;70.43
12471;BME280;36499;46.484;13.832;2023-03-01T08:31:19;93575.06;;;2.36;70.36
12471;BME280;36499;46.484;13.832;2023-03-01T08:33:49;93573.25;;;2.28;70.30
12471;BME280;36499;46.484;13.832;2023-03-01T08:36:21;93579.03;;;2.22;69.92
12471;BME280;36499;46.484;13.832;2023-03-01T08:38:48;93577.06;;;1.99;71.31
12471;BME280;36499;46.484;13.832;2023-03-01T08:41:15;93587.63;;;2.13;70.23
12471;BME280;36499;46.484;13.832;2023-03-01T08:43:42;93581.22;;;2.17;70.50
12471;BME280;36499;46.484;13.832;2023-03-01T08:46:10;93572.16;;;2.31;70.13
12471;BME280;36499;46.484;13.832;2023-03-01T08:48:39;93569.22;;;2.26;70.25
12471;BME280;36499;46.484;13.832;2023-03-01T08:51:11;93568.22;;;2.45;69.52
12471;BME280;36499;46.484;13.832;2023-03-01T08:53:38;93560.41;;;2.54;68.98
12471;BME280;36499;46.484;13.832;2023-03-01T08:56:07;93558.13;;;2.51;69.20
12471;BME280;36499;46.484;13.832;2023-03-01T08:58:34;93553.19;;;2.58;68.75
12471;BME280;36499;46.484;13.832;2023-03-01T09:01:07;93556.91;;;2.63;69.01
12471;BME280;36499;46.484;13.832;2023-03-01T09:03:35;93548.22;;;2.64;69.33
12471;BME280;36499;46.484;13.832;2023-03-01T09:06:06;93544.00;;;2.55;70.20
12471;BME280;36499;46.484;13.832;2023-03-01T09:08:35;93549.25;;;2.46;69.38
12471;BME280;36499;46.484;13.832;2023-03-01T09:11:03;93551.28;;;2.34;69.27
12471;BME280;36499;46.484;13.832;2023-03-01T09:13:31;93545.53;;;2.40;69.86
12471;BME280;36499;46.484;13.832;2023-03-01T09:16:01;93552.91;;;2.35;69.58
12471;BME280;36499;46.484;13.832;2023-03-01T09:18:28;93542.63;;;2.35;69.87
12471;BME280;36499;46.484;13.832;2023-03-01T09:21:01;93543.78;;;2.15;69.80
12471;BME280;36499;46.484;13.832;2023-03-01T09:23:34;93549.88;;;2.14;71.00
12471;BME280;36499;46.484;13.832;2023-03-01T09:26:05;93541.81;;;2.34;69.61
12471;BME280;36499;46.484;13.832;2023-03-01T09:28:32;93536.50;;;2.36;69.36
12471;BME280;36499;46.484;13.832;2023-03-01T09:31:00;93534.94;;;2.43;69.62
12471;BME280;36499;46.484;13.832;2023-03-01T09:33:27;93540.91;;;2.52;69.42
12471;BME280;36499;46.484;13.832;2023-03-01T09:35:58;93547.53;;;2.54;68.54
12471;BME280;36499;46.484;13.832;2023-03-01T09:38:25;93540.69;;;2.37;68.35
12471;BME280;36499;46.484;13.832;2023-03-01T09:40:55;93529.13;;;2.41;69.24
12471;BME280;36499;46.484;13.832;2023-03-01T09:43:30;93543.94;;;2.39;68.79
12471;BME280;36499;46.484;13.832;2023-03-01T09:46:03;93535.72;;;2.43;69.04
12471;BME280;36499;46.484;13.832;2023-03-01T09:48:42;93532.31;;;2.35;69.22
12471;BME280;36499;46.484;13.832;2023-03-01T09:51:17;93531.25;;;2.46;68.31
12471;BME280;36499;46.484;13.832;2023-03-01T09:53:45;93550.72;;;2.48;68.59
12471;BME280;36499;46.484;13.832;2023-03-01T09:56:21;93543.44;;;2.43;67.95
12471;BME280;36499;46.484;13.832;2023-03-01T09:58:59;93537.31;;;2.62;67.44
12471;BME280;36499;46.484;13.832;2023-03-01T10:01:35;93544.00;;;2.55;66.90
12471;BME280;36499;46.484;13.832;2023-03-01T10:04:36;93536.63;;;2.60;67.35
12471;BME280;36499;46.484;13.832;2023-03-01T10:07:25;93525.47;;;2.77;67.04
12471;BME280;36499;46.484;13.832;2023-03-01T10:09:54;93525.84;;;2.99;65.49
12471;BME280;36499;46.484;13.832;2023-03-01T10:12:27;93524.25;;;3.06;65.73
12471;BME280;36499;46.484;13.832;2023-03-01T10:15:05;93524.91;;;3.16;65.38
12471;BME280;36499;46.484;13.832;2023-03-01T10:17:39;93516.41;;;3.15;64.76
12471;BME280;36499;46.484;13.832;2023-03-01T10:20:22;93525.44;;;3.19;65.02
12471;BME280;36499;46.484;13.832;2023-03-01T10:22:51;93535.13;;;3.33;64.55
12471;BME280;36499;46.484;13.832;2023-03-01T10:25:54;93531.44;;;3.44;63.92
12471;BME280;36499;46.484;13.832;2023-03-01T10:28:31;93542.25;;;3.64;63.16
12471;BME280;36499;46.484;13.832;2023-03-01T10:31:03;93548.22;;;3.64;62.53
12471;BME280;36499;46.484;13.832;2023-03-01T10:33:35;93563.38;;;3.75;61.82
12471;BME280;36499;46.484;13.832;2023-03-01T10:36:06;93566.25;;;3.88;63.13
12471;BME280;36499;46.484;13.832;2023-03-01T10:38:49;93558.06;;;4.01;62.62
12471;BME280;36499;46.484;13.832;2023-03-01T10:41:18;93546.28;;;4.15;62.06
12471;BME280;36499;46.484;13.832;2023-03-01T10:43:49;93555.78;;;4.30;62.53
12471;BME280;36499;46.484;13.832;2023-03-01T10:46:26;93565.59;;;4.43;63.07
12471;BME280;36499;46.484;13.832;2023-03-01T10:49:12;93556.56;;;4.55;62.18
12471;BME280;36499;46.484;13.832;2023-03-01T10:51:41;93563.28;;;4.64;62.14
12471;BME280;36499;46.484;13.832;2023-03-01T10:54:19;93563.28;;;4.72;63.17
12471;BME280;36499;46.484;13.832;2023-03-01T10:56:49;93554.53;;;4.81;62.46
12471;BME280;36499;46.484;13.832;2023-03-01T10:59:26;93549.84;;;4.85;62.02
12471;BME280;36499;46.484;13.832;2023-03-01T11:02:16;93549.97;;;4.92;60.71
12471;BME280;36499;46.484;13.832;2023-03-01T11:04:59;93543.81;;;5.01;61.23
12471;BME280;36499;46.484;13.832;2023-03-01T11:07:26;93538.91;;;5.14;60.03
12471;BME280;36499;46.484;13.832;2023-03-01T11:09:53;93523.69;;;5.19;59.37
12471;BME280;36499;46.484;13.832;2023-03-01T11:12:21;93526.09;;;5.28;59.69
12471;BME280;36499;46.484;13.832;2023-03-01T11:14:53;93524.94;;;5.31;59.08
12471;BME280;36499;46.484;13.832;2023-03-01T11:17:26;93519.31;;;5.27;58.21
12471;BME280;36499;46.484;13.832;2023-03-01T11:20:13;93517.22;;;5.23;58.44
12471;BME280;36499;46.484;13.832;2023-03-01T11:22:49;93525.66;;;5.17;58.42
12471;BME280;36499;46.484;13.832;2023-03-01T11:25:21;93520.34;;;5.10;57.89
12471;BME280;36499;46.484;13.832;2023-03-01T11:27:53;93521.50;;;5.08;58.44
12471;BME280;36499;46.484;13.832;2023-03-01T11:30:28;93527.13;;;5.11;58.76
12471;BME280;36499;46.484;13.832;2023-03-01T11:33:11;93520.19;;;5.12;60.07
12471;BME280;36499;46.484;13.832;2023-03-01T11:35:47;93510.78;;;5.19;58.89
12471;BME280;36499;46.484;13.832;2023-03-01T11:38:22;93522.28;;;5.16;57.72
12471;BME280;36499;46.484;13.832;2023-03-01T11:40:54;93522.63;;;5.13;57.70
12471;BME280;36499;46.484;13.832;2023-03-01T11:43:37;93520.31;;;5.18;57.44
12471;BME280;36499;46.484;13.832;2023-03-01T11:46:49;93519.47;;;5.26;57.21
12471;BME280;36499;46.484;13.832;2023-03-01T11:49:54;93520.56;;;5.31;57.80
12471;BME280;36499;46.484;13.832;2023-03-01T11:52:38;93512.97;;;5.30;57.22
12471;BME280;36499;46.484;13.832;2023-03-01T11:55:30;93511.38;;;5.29;58.01
12471;BME280;36499;46.484;13.832;2023-03-01T11:58:27;93506.88;;;5.23;57.16
12471;BME280;36499;46.484;13.832;2023-03-01T12:01:33;93492.13;;;5.09;57.61
12471;BME280;36499;46.484;13.832;2023-03-01T12:04:45;93492.31;;;4.99;58.20
12471;BME280;36499;46.484;13.832;2023-03-01T12:07:29;93494.47;;;4.88;58.51
12471;BME280;36499;46.484;13.832;2023-03-01T12:10:19;93489.28;;;4.88;57.91
12471;BME280;36499;46.484;13.832;2023-03-01T12:13:18;93483.84;;;4.82;58.38
12471;BME280;36499;46.484;13.832;2023-03-01T12:16:10;93484.50;;;4.76;58.55
12471;BME280;36499;46.484;13.832;2023-03-01T12:19:04;93480.47;;;4.74;59.11
12471;BME280;36499;46.484;13.832;2023-03-01T12:22:07;93481.16;;;4.68;58.86
12471;BME280;36499;46.484;13.832;2023-03-01T12:25:10;93485.81;;;4.72;58.60
12471;BME280;36499;46.484;13.832;2023-03-01T12:28:08;93487.75;;;4.70;59.17
12471;BME280;36499;46.484;13.832;2023-03-01T12:31:26;93480.63;;;4.72;58.81
12471;BME280;36499;46.484;13.832;2023-03-01T12:34:11;93473.69;;;4.73;58.28
12471;BME280;36499;46.484;13.832;2023-03-01T12:37:11;93473.06;;;4.71;58.96
12471;BME280;36499;46.484;13.832;2023-03-01T12:39:58;93475.66;;;4.71;58.79
12471;BME280;36499;46.484;13.832;2023-03-01T12:42:41;93465.69;;;4.68;60.27
12471;BME280;36499;46.484;13.832;2023-03-01T12:45:54;93459.34;;;4.70;59.93
12471;BME280;36499;46.484;13.832;2023-03-01T12:48:41;93450.31;;;4.74;60.58
12471;BME280;36499;46.484;13.832;2023-03-01T12:51:14;93454.00;;;4.72;60.76
12471;BME280;36499;46.484;13.832;2023-03-01T12:53:47;93457.44;;;4.64;59.76
12471;BME280;36499;46.484;13.832;2023-03-01T12:56:19;93451.09;;;4.36;60.80
12471;BME280;36499;46.484;13.832;2023-03-01T12:58:59;93449.47;;;4.35;61.02
12471;BME280;36499;46.484;13.832;2023-03-01T13:01:41;93455.44;;;4.35;60.11
12471;BME280;36499;46.484;13.832;2023-03-01T13:04:29;93450.75;;;4.39;60.34
12471;BME280;36499;46.484;13.832;2023-03-01T13:07:23;93442.56;;;4.27;60.35
12471;BME280;36499;46.484;13.832;2023-03-01T13:10:06;93443.97;;;4.38;60.61
12471;BME280;36499;46.484;13.832;2023-03-01T13:13:01;93446.19;;;4.49;60.82
12471;BME280;36499;46.484;13.832;2023-03-01T13:15:32;93443.94;;;4.46;59.64
12471;BME280;36499;46.484;13.832;2023-03-01T13:18:03;93440.38;;;4.55;59.59
12471;BME280;36499;46.484;13.832;2023-03-01T13:20:44;93437.03;;;4.47;59.58
12471;BME280;36499;46.484;13.832;2023-03-01T13:23:26;93444.97;;;4.37;59.96
12471;BME280;36499;46.484;13.832;2023-03-01T13:26:10;93442.06;;;4.40;60.42
12471;BME280;36499;46.484;13.832;2023-03-01T13:28:51;93428.19;;;4.41;60.80
12471;BME280;36499;46.484;13.832;2023-03-01T13:31:58;93434.97;;;4.34;60.95